This is the latest recevied weather packets stored in our database for station/object NK0Z-13. If no packets are shown the sender has not sent any weather packets the latest 10 day(s).
| Time | Temp. | Humidity | Pressure | Rain* | Wind** | Luminosity | Snow |
|---|---|---|---|---|---|---|---|
| 1777702930 | 8.89° C | 84% | 1021.9 hPa | 0 mm | - | 0 W/m² | - |
| 1777702325 | 8.89° C | 83% | 1022.1 hPa | 0 mm | - | 0 W/m² | - |
| 1777701723 | 8.89° C | 83% | 1022.1 hPa | 0 mm | - | 0 W/m² | - |
| 1777701118 | 8.89° C | 84% | 1021.7 hPa | 0 mm | - | 0 W/m² | - |
| 1777700514 | 8.89° C | 84% | 1021.6 hPa | 0 mm | - | 0 W/m² | - |
| 1777699914 | 8.89° C | 85% | 1021.5 hPa | 0 mm | - | 0 W/m² | - |
| 1777699310 | 8.89° C | 85% | 1021.5 hPa | 0 mm | - | 0 W/m² | - |
| 1777698706 | 7.78° C | 88% | 1021.8 hPa | 0 mm | - | 0 W/m² | - |
| 1777698105 | 7.78° C | 88% | 1021.7 hPa | 0 mm | - | 0 W/m² | - |
| 1777697499 | 7.78° C | 88% | 1021.4 hPa | 0 mm | - | 0 W/m² | - |
| 1777696897 | 7.78° C | 89% | 1021.4 hPa | 0 mm | - | 0 W/m² | - |
| 1777696293 | 7.78° C | 87% | 1021.7 hPa | 0 mm | - | 0 W/m² | - |
| 1777695689 | 7.78° C | 88% | 1021.8 hPa | 0 mm | - | 0 W/m² | - |
| 1777695090 | 7.78° C | 90% | 1021.6 hPa | 0 mm | - | 0 W/m² | - |
| 1777694490 | 7.22° C | 91% | 1021.2 hPa | 0 mm | - | 0 W/m² | - |
| 1777693888 | 7.22° C | 92% | 1021.1 hPa | 0 mm | - | 0 W/m² | - |
| 1777693284 | 7.22° C | 92% | 1020.8 hPa | 0 mm | - | 0 W/m² | - |
| 1777692679 | 6.67° C | 92% | 1021 hPa | 0 mm | - | 0 W/m² | - |
| 1777692077 | 7.22° C | 91% | 1021 hPa | 0 mm | - | 0 W/m² | - |
| 1777691473 | 7.78° C | 90% | 1021 hPa | 0 mm | - | 0 W/m² | - |
| 1777690869 | 7.78° C | 89% | 1021 hPa | 0 mm | - | 0 W/m² | - |
| 1777690264 | 8.33° C | 88% | 1020.7 hPa | 0 mm | - | 0 W/m² | - |
| 1777689659 | 8.33° C | 86% | 1020.7 hPa | 0 mm | - | 0 W/m² | - |
| 1777689060 | 9.44° C | 84% | 1020.6 hPa | 0 mm | - | 0 W/m² | - |
| 1777688460 | 10° C | 82% | 1020.3 hPa | 0 mm | - | 0 W/m² | - |
* Rain latest hour (hover to see other rain measurements)
** Current wind speed in m/s (hover to see current wind gust speed)